This is the latest recevied weather packets stored in our database for station/object K8BCO. If no packets are shown the sender has not sent any weather packets the latest 10 day(s).
| Time | Temp. | Humidity | Pressure | Rain* | Wind** | Luminosity | Snow |
|---|---|---|---|---|---|---|---|
| 1777653318 | 5° C | 61% | 1017.2 hPa | 0 mm | - | 676 W/m² | - |
| 1777652719 | 5.56° C | 62% | 1017.2 hPa | 0 mm | - | 499 W/m² | - |
| 1777652119 | 5° C | 63% | 1017 hPa | 0 mm | - | 880 W/m² | - |
| 1777651518 | 4.44° C | 64% | 1017 hPa | 0 mm | - | 646 W/m² | - |
| 1777650918 | 4.44° C | 65% | 1016.9 hPa | 0 mm | - | 646 W/m² | - |
| 1777650316 | 5° C | 65% | 1016.9 hPa | 0 mm | - | 658 W/m² | - |
| 1777649716 | 4.44° C | 65% | 1016.7 hPa | 0 mm | - | 650 W/m² | - |
| 1777649116 | 3.89° C | 67% | 1016.8 hPa | 0 mm | - | 502 W/m² | - |
| 1777648516 | 3.33° C | 68% | 1016.8 hPa | 0 mm | - | 390 W/m² | - |
| 1777647917 | 3.89° C | 69% | 1016.9 hPa | 0 mm | - | 339 W/m² | - |
| 1777647319 | 3.89° C | 69% | 1016.8 hPa | 0 mm | - | 359 W/m² | - |
| 1777646717 | 3.89° C | 70% | 1016.5 hPa | 0 mm | - | 776 W/m² | - |
| 1777646117 | 3.33° C | 74% | 1016.6 hPa | 0 mm | - | 403 W/m² | - |
| 1777645517 | 2.78° C | 76% | 1016.6 hPa | 0 mm | - | 334 W/m² | - |
| 1777644921 | 2.78° C | 77% | 1016.6 hPa | 0 mm | - | 282 W/m² | - |
| 1777644318 | 2.22° C | 78% | 1016.6 hPa | 0 mm | - | 268 W/m² | - |
| 1777643721 | 2.22° C | 79% | 1016.5 hPa | 0 mm | - | 230 W/m² | - |
| 1777643123 | 1.67° C | 80% | 1016.6 hPa | 0 mm | - | 202 W/m² | - |
| 1777642521 | 1.67° C | 82% | 1016.6 hPa | 0 mm | - | 157 W/m² | - |
| 1777641921 | 1.67° C | 82% | 1016.6 hPa | 0 mm | - | 112 W/m² | - |
| 1777641321 | 1.11° C | 82% | 1016.6 hPa | 0 mm | - | 103 W/m² | - |
| 1777640721 | 1.11° C | 82% | 1016.6 hPa | 0 mm | - | 72 W/m² | - |
| 1777640118 | 1.11° C | 81% | 1016.6 hPa | 0 mm | - | 72 W/m² | - |
| 1777639516 | 1.11° C | 81% | 1016.6 hPa | 0 mm | - | 73 W/m² | - |
| 1777638920 | 1.11° C | 81% | 1016.6 hPa | 0 mm | - | 69 W/m² | - |
* Rain latest hour (hover to see other rain measurements)
** Current wind speed in m/s (hover to see current wind gust speed)